Arctic Fury — WDE9335 — position and weather

sailwx.info

Track history (hours):
 
Tides and Currents Weather Stations Pressure Air Temp Water Temp Dewpoint Dewpoint Depression Visibility Wind Speed Wind Dir Waves Ship Positions

Arctic Fury

More information available from US FCC via Universal Licensing System and Coast Guard Vessel Documentation Center.

Last reported at 2014-Jul-30 18:33 UTC. Time now 2014-Jul-30 19:16 UTC.
Position N 46°38' W 124°42'.

Length 43 m; draft 5 m.

Type: Fishing. MMSI: 366468000.

Date/timePositionNaut miles runAvg speedWind from/ knotsBaromVisibWave heightAir tempDewpointWater temp
2014-Jul-30 18:33N 46°38' W 124°42'6 4.6
2014-Jul-30 17:13N 46°43' W 124°36'6 8.8
2014-Jul-30 16:33N 46°46' W 124°29'9 9.2
2014-Jul-30 15:33N 46°52' W 124°19'8 8.5
2014-Jul-30 14:33N 46°55' W 124°07'0 0.0
2014-Jul-30 13:32N 46°55' W 124°07'0 0.0
2014-Jul-30 12:30N 46°55' W 124°07'0 0.0
2014-Jul-30 11:21N 46°55' W 124°07'0 0.0
2014-Jul-30 10:33N 46°55' W 124°07'0 0.0
2014-Jul-30 09:33N 46°55' W 124°07'0 0.1
2014-Jul-30 06:34N 46°54' W 124°06'8 1.0
2014-Jul-29 22:21N 46°49' W 124°16'6 8.2
2014-Jul-29 21:33N 46°42' W 124°17'9 8.4
2014-Jul-29 20:33N 46°34' W 124°19'9 8.6
2014-Jul-29 19:33N 46°25' W 124°22'8 8.3
2014-Jul-29 18:32N 46°17' W 124°24'8 0.2
2014-Jul-28 02:31N 46°13' W 124°33'1010.2
2014-Jul-28 01:32N 46°23' W 124°32'12 9.9
2014-Jul-28 00:17N 46°35' W 124°30'810.0
2014-Jul-27 23:29N 46°43' W 124°30'8 9.0
2014-Jul-27 22:33N 46°51' W 124°33'10 9.7
2014-Jul-27 21:33N 46°59' W 124°42'11 9.7
2014-Jul-27 20:29N 47°09' W 124°43'8 0.9
2014-Jul-27 11:08N 47°16' W 124°36'23 8.4
2014-Jul-27 08:26N 46°57' W 124°17'23 1.5
2014-Jul-26 17:33N 46°34' W 124°20'9 8.8
2014-Jul-26 16:29N 46°25' W 124°22'15 0.3
2014-Jul-24 20:31N 46°13' W 124°35'44 1.1
2014-Jul-23 03:29N 46°57' W 124°29'9 9.0
2014-Jul-23 02:28N 46°55' W 124°16'  
Track history (hours):
 
Tides and Currents Weather Stations Pressure Air Temp Water Temp Dewpoint Dewpoint Depression Visibility Wind Speed Wind Dir Waves Ship Positions

Arctic Fury

More information available from US FCC via Universal Licensing System and Coast Guard Vessel Documentation Center.

Last reported at 2014-Jul-30 18:33 UTC. Time now 2014-Jul-30 19:16 UTC.
Position N 46°38' W 124°42'.

Length 43 m; draft 5 m.

Type: Fishing. MMSI: 366468000.

Date/timePositionNaut miles runAvg speedWind from/ knotsBaromVisibWave heightAir tempDewpointWater temp
2014-Jul-30 18:33N 46°38' W 124°42'6 4.6
2014-Jul-30 17:13N 46°43' W 124°36'6 8.8
2014-Jul-30 16:33N 46°46' W 124°29'9 9.2
2014-Jul-30 15:33N 46°52' W 124°19'8 8.5
2014-Jul-30 14:33N 46°55' W 124°07'0 0.0
2014-Jul-30 13:32N 46°55' W 124°07'0 0.0
2014-Jul-30 12:30N 46°55' W 124°07'0 0.0
2014-Jul-30 11:21N 46°55' W 124°07'0 0.0
2014-Jul-30 10:33N 46°55' W 124°07'0 0.0
2014-Jul-30 09:33N 46°55' W 124°07'0 0.1
2014-Jul-30 06:34N 46°54' W 124°06'8 1.0
2014-Jul-29 22:21N 46°49' W 124°16'6 8.2
2014-Jul-29 21:33N 46°42' W 124°17'9 8.4
2014-Jul-29 20:33N 46°34' W 124°19'9 8.6
2014-Jul-29 19:33N 46°25' W 124°22'8 8.3
2014-Jul-29 18:32N 46°17' W 124°24'8 0.2
2014-Jul-28 02:31N 46°13' W 124°33'1010.2
2014-Jul-28 01:32N 46°23' W 124°32'12 9.9
2014-Jul-28 00:17N 46°35' W 124°30'810.0
2014-Jul-27 23:29N 46°43' W 124°30'8 9.0
2014-Jul-27 22:33N 46°51' W 124°33'10 9.7
2014-Jul-27 21:33N 46°59' W 124°42'11 9.7
2014-Jul-27 20:29N 47°09' W 124°43'8 0.9
2014-Jul-27 11:08N 47°16' W 124°36'23 8.4
2014-Jul-27 08:26N 46°57' W 124°17'23 1.5
2014-Jul-26 17:33N 46°34' W 124°20'9 8.8
2014-Jul-26 16:29N 46°25' W 124°22'15 0.3
2014-Jul-24 20:31N 46°13' W 124°35'44 1.1
2014-Jul-23 03:29N 46°57' W 124°29'9 9.0
2014-Jul-23 02:28N 46°55' W 124°16'  

Dump ship's entire track history